Time;durP1;ratioP1;P1;durP2;ratioP2;P2;SDS_P1;SDS_P2;PMS_P1;PMS_P2;Temp;Humidity;BMP_temperature;BMP_pressure;BME280_temperature;BME280_humidity;BME280_pressure;Samples;Min_cycle;Max_cycle;Signal;HPM_P1;HPM_P2
2022/04/27 00:00:21;;;;;;;0.28;0.28;;;;;;;;;;4947716;28;20034;-83
2022/04/27 00:02:47;;;;;;;0.30;0.30;;;;;;;;;;4946224;28;20050;-83
2022/04/27 00:05:14;;;;;;;0.47;0.47;;;;;;;;;;4948591;28;20093;-84
2022/04/27 00:07:40;;;;;;;0.40;0.40;;;;;;;;;;4963675;28;20066;-85
2022/04/27 00:10:06;;;;;;;0.40;0.40;;;;;;;;;;4950913;28;20054;-85
2022/04/27 00:12:36;;;;;;;2.47;1.27;;;;;;;;;;4952615;28;20049;-84
2022/04/27 00:15:03;;;;;;;0.20;0.20;;;;;;;;;;4949462;28;20050;-86
2022/04/27 00:17:29;;;;;;;;;;;;;;;;;;4952572;28;20027;-85
2022/04/27 00:19:55;;;;;;;0.43;0.43;;;;;;;;;;4947384;28;19932;-85
2022/04/27 00:22:21;;;;;;;0.30;0.30;;;;;;;;;;4962472;28;20055;-86
2022/04/27 00:24:47;;;;;;;0.30;0.30;;;;;;;;;;4952471;28;20023;-86
2022/04/27 00:27:13;;;;;;;0.68;0.60;;;;;;;;;;4951843;28;20101;-86
2022/04/27 00:29:39;;;;;;;1.17;0.60;;;;;;;;;;4952525;28;20042;-85
2022/04/27 00:32:06;;;;;;;0.50;0.50;;;;;;;;;;4945110;28;20039;-85
2022/04/27 00:34:32;;;;;;;0.10;0.10;;;;;;;;;;4945433;28;20039;-84
2022/04/27 00:36:58;;;;;;;0.37;0.37;;;;;;;;;;4959820;28;20041;-84
2022/04/27 00:39:24;;;;;;;0.38;0.28;;;;;;;;;;4955341;28;20031;-83
2022/04/27 00:41:59;;;;;;;0.10;0.10;;;;;;;;;;4950743;28;20031;-85
2022/04/27 00:44:32;;;;;;;0.10;0.10;;;;;;;;;;4948270;28;20047;-85
2022/04/27 00:46:58;;;;;;;0.10;0.10;;;;;;;;;;4947750;28;20102;-84
2022/04/27 00:49:24;;;;;;;0.57;0.57;;;;;;;;;;4962666;28;20039;-84
2022/04/27 00:51:50;;;;;;;0.13;0.13;;;;;;;;;;4956136;28;20576;-84
2022/04/27 00:54:18;;;;;;;0.93;0.57;;;;;;;;;;4941180;28;20162;-85
2022/04/27 00:56:44;;;;;;;1.25;0.50;;;;;;;;;;4943889;28;20687;-83
2022/04/27 00:59:11;;;;;;;0.17;0.17;;;;;;;;;;4939373;29;20398;-85
2022/04/27 01:01:37;;;;;;;0.10;0.10;;;;;;;;;;4941653;28;20039;-86
2022/04/27 01:04:05;;;;;;;0.73;0.73;;;;;;;;;;4944467;28;20058;-86
2022/04/27 01:06:32;;;;;;;0.10;0.10;;;;;;;;;;4944519;28;20089;-86
2022/04/27 01:08:58;;;;;;;0.50;0.50;;;;;;;;;;4946393;28;20031;-84
2022/04/27 01:11:24;;;;;;;0.73;0.73;;;;;;;;;;4948810;28;20038;-85
2022/04/27 01:13:50;;;;;;;0.68;0.60;;;;;;;;;;4943762;28;20501;-85
2022/04/27 01:16:16;;;;;;;0.75;0.75;;;;;;;;;;4944859;28;20493;-86
2022/04/27 01:18:43;;;;;;;0.47;0.30;;;;;;;;;;4946229;28;20047;-86
2022/04/27 01:21:09;;;;;;;0.35;0.35;;;;;;;;;;4944129;28;20070;-85
2022/04/27 01:23:35;;;;;;;0.10;0.10;;;;;;;;;;4944276;28;20043;-86
2022/04/27 01:26:05;;;;;;;0.30;0.30;;;;;;;;;;4944520;28;20035;-86
2022/04/27 01:28:32;;;;;;;0.10;0.10;;;;;;;;;;4940676;28;20065;-86
2022/04/27 01:30:59;;;;;;;0.63;0.63;;;;;;;;;;4940902;29;20497;-86
2022/04/27 01:33:25;;;;;;;;;;;;;;;;;;4943081;29;20023;-85
2022/04/27 01:35:51;;;;;;;0.80;0.80;;;;;;;;;;4945161;28;20446;-86
2022/04/27 01:38:17;;;;;;;0.77;0.40;;;;;;;;;;4944384;28;20565;-86
2022/04/27 01:40:44;;;;;;;0.20;0.20;;;;;;;;;;4938972;28;20669;-85
2022/04/27 01:43:10;;;;;;;1.50;0.67;;;;;;;;;;4944028;28;20501;-85
2022/04/27 01:45:36;;;;;;;0.17;0.17;;;;;;;;;;4944105;28;20448;-85
2022/04/27 01:48:03;;;;;;;0.50;0.50;;;;;;;;;;4946974;28;20483;-86
2022/04/27 01:50:29;;;;;;;0.20;0.20;;;;;;;;;;4952909;28;20333;-87
2022/04/27 01:55:40;;;;;;;0.63;0.63;;;;;;;;;;4944328;28;20045;-85
2022/04/27 01:58:06;;;;;;;0.55;0.38;;;;;;;;;;4951970;28;20036;-86
2022/04/27 02:00:33;;;;;;;0.25;0.25;;;;;;;;;;4945589;28;20045;-84
2022/04/27 02:02:59;;;;;;;0.57;0.57;;;;;;;;;;4943556;28;20042;-85
2022/04/27 02:05:26;;;;;;;0.40;0.40;;;;;;;;;;4944526;28;20023;-83
2022/04/27 02:07:52;;;;;;;0.40;0.40;;;;;;;;;;4947615;28;20118;-84
2022/04/27 02:10:18;;;;;;;0.30;0.30;;;;;;;;;;4945736;28;20024;-84
2022/04/27 02:12:44;;;;;;;0.30;0.30;;;;;;;;;;4946759;28;20039;-84
2022/04/27 02:15:10;;;;;;;0.63;0.63;;;;;;;;;;4954637;28;20616;-84
2022/04/27 02:17:36;;;;;;;0.30;0.30;;;;;;;;;;4946329;28;20501;-84
2022/04/27 02:20:03;;;;;;;0.30;0.30;;;;;;;;;;4946573;28;20043;-84
2022/04/27 02:22:32;;;;;;;0.93;0.38;;;;;;;;;;4931395;28;20116;-83
2022/04/27 02:24:58;;;;;;;0.10;0.10;;;;;;;;;;4945151;28;20023;-84
2022/04/27 02:27:24;;;;;;;0.25;0.25;;;;;;;;;;4947098;28;20050;-85
2022/04/27 02:29:50;;;;;;;0.10;0.10;;;;;;;;;;4953298;28;20719;-85
2022/04/27 02:32:18;;;;;;;0.10;0.10;;;;;;;;;;4953637;28;20031;-86
2022/04/27 02:34:44;;;;;;;5.38;0.70;;;;;;;;;;4943317;29;20043;-85
2022/04/27 02:37:10;;;;;;;0.47;0.38;;;;;;;;;;4944262;28;20078;-85
2022/04/27 02:39:36;;;;;;;0.10;0.10;;;;;;;;;;4947895;28;20479;-86
2022/04/27 02:42:03;;;;;;;0.63;0.57;;;;;;;;;;4944500;28;20054;-85
2022/04/27 02:44:29;;;;;;;0.30;0.30;;;;;;;;;;4946940;28;20870;-86
2022/04/27 02:46:55;;;;;;;0.10;0.10;;;;;;;;;;4948091;28;20535;-84
2022/04/27 02:52:06;;;;;;;7.13;0.70;;;;;;;;;;4945265;28;20515;-84
2022/04/27 02:54:32;;;;;;;0.45;0.45;;;;;;;;;;4945499;28;20039;-84
2022/04/27 02:56:58;;;;;;;0.30;0.30;;;;;;;;;;4948014;28;20106;-84
2022/04/27 02:59:25;;;;;;;0.13;0.13;;;;;;;;;;4947051;28;20158;-85
2022/04/27 03:01:51;;;;;;;1.03;0.40;;;;;;;;;;4951733;28;20067;-85
2022/04/27 03:04:17;;;;;;;0.20;0.15;;;;;;;;;;4945521;28;21165;-85
2022/04/27 03:06:43;;;;;;;0.67;0.33;;;;;;;;;;4957336;28;20023;-85
2022/04/27 03:09:09;;;;;;;0.38;0.22;;;;;;;;;;4948538;28;20027;-86
2022/04/27 03:11:35;;;;;;;0.10;0.10;;;;;;;;;;4944700;28;20683;-86
2022/04/27 03:14:01;;;;;;;0.10;0.10;;;;;;;;;;4953841;28;20027;-86
2022/04/27 03:16:27;;;;;;;3.13;2.10;;;;;;;;;;4942537;28;20028;-85
2022/04/27 03:18:53;;;;;;;0.20;0.20;;;;;;;;;;4947803;28;20054;-85
2022/04/27 03:21:19;;;;;;;0.10;0.10;;;;;;;;;;4946168;28;20433;-84
2022/04/27 03:23:45;;;;;;;0.00;0.00;;;;;;;;;;4941542;28;20039;-85
2022/04/27 03:26:11;;;;;;;2.00;0.85;;;;;;;;;;4942734;28;20043;-85
2022/04/27 03:28:37;;;;;;;0.15;0.15;;;;;;;;;;4943519;28;20050;-85
2022/04/27 03:31:03;;;;;;;0.10;0.10;;;;;;;;;;4943520;28;20023;-85
2022/04/27 03:33:29;;;;;;;0.20;0.20;;;;;;;;;;4946960;28;20079;-85
2022/04/27 03:35:55;;;;;;;0.10;0.10;;;;;;;;;;4943951;28;20032;-83
2022/04/27 03:38:21;;;;;;;0.40;0.40;;;;;;;;;;4946172;28;20046;-84
2022/04/27 03:40:47;;;;;;;0.20;0.20;;;;;;;;;;4941106;28;20036;-85
2022/04/27 03:43:15;;;;;;;0.10;0.10;;;;;;;;;;4955738;28;20408;-85
2022/04/27 03:45:41;;;;;;;0.30;0.15;;;;;;;;;;4946917;28;20082;-85
2022/04/27 03:48:07;;;;;;;1.30;0.75;;;;;;;;;;4944287;28;20042;-86
2022/04/27 03:50:33;;;;;;;0.08;0.08;;;;;;;;;;4942511;28;20497;-87
2022/04/27 03:53:00;;;;;;;0.52;0.52;;;;;;;;;;4944647;28;20027;-86
2022/04/27 03:55:28;;;;;;;0.20;0.20;;;;;;;;;;4939879;28;20035;-85
2022/04/27 03:57:54;;;;;;;0.20;0.20;;;;;;;;;;4948479;28;20031;-85
2022/04/27 04:00:21;;;;;;;0.40;0.40;;;;;;;;;;4941721;28;20559;-84
2022/04/27 04:02:47;;;;;;;0.10;0.10;;;;;;;;;;4942133;28;20043;-85
2022/04/27 04:05:13;;;;;;;0.73;0.73;;;;;;;;;;4955476;28;20026;-84
2022/04/27 04:07:40;;;;;;;0.30;0.20;;;;;;;;;;4942082;28;20073;-83
2022/04/27 04:10:06;;;;;;;0.10;0.10;;;;;;;;;;4942956;28;20027;-84
2022/04/27 04:12:32;;;;;;;0.17;0.17;;;;;;;;;;4954524;28;20037;-84
2022/04/27 04:14:58;;;;;;;0.10;0.10;;;;;;;;;;4945193;28;20035;-84
2022/04/27 04:17:24;;;;;;;1.05;0.85;;;;;;;;;;4946422;28;20055;-84
2022/04/27 04:19:50;;;;;;;0.10;0.10;;;;;;;;;;4943563;28;20488;-85
2022/04/27 04:22:16;;;;;;;0.15;0.15;;;;;;;;;;4947466;28;20041;-84
2022/04/27 04:28:29;;;;;;;0.13;0.13;;;;;;;;;;4941722;28;20070;-85
2022/04/27 04:30:13;;;;;;;0.68;0.63;;;;;;;;;;4945307;28;20050;-84
2022/04/27 04:32:40;;;;;;;0.25;0.25;;;;;;;;;;4945297;28;20035;-84
2022/04/27 04:35:06;;;;;;;0.30;0.30;;;;;;;;;;4940576;28;20027;-83
2022/04/27 04:37:33;;;;;;;0.47;0.47;;;;;;;;;;4941477;28;20110;-83
2022/04/27 04:39:59;;;;;;;0.93;0.55;;;;;;;;;;4948051;28;20027;-84
2022/04/27 04:42:25;;;;;;;0.10;0.10;;;;;;;;;;4950436;28;20097;-84
2022/04/27 04:44:51;;;;;;;0.20;0.20;;;;;;;;;;4949106;28;20034;-84
2022/04/27 04:47:17;;;;;;;0.47;0.47;;;;;;;;;;4949478;28;20065;-84
2022/04/27 04:49:43;;;;;;;0.10;0.10;;;;;;;;;;4946764;28;20471;-83
2022/04/27 04:52:10;;;;;;;8.40;0.57;;;;;;;;;;4946759;28;20178;-84
2022/04/27 04:54:36;;;;;;;0.20;0.20;;;;;;;;;;4949874;28;20086;-84
2022/04/27 04:57:02;;;;;;;1.70;1.27;;;;;;;;;;4950960;28;20524;-84
2022/04/27 04:59:28;;;;;;;1.75;1.65;;;;;;;;;;4949222;28;20491;-85
2022/04/27 05:01:55;;;;;;;0.65;0.60;;;;;;;;;;4946433;28;20027;-85
2022/04/27 05:04:22;;;;;;;1.80;1.70;;;;;;;;;;4947964;28;20035;-85
2022/04/27 05:06:48;;;;;;;0.28;0.28;;;;;;;;;;4949572;28;20440;-86
2022/04/27 05:09:14;;;;;;;0.10;0.10;;;;;;;;;;4949219;28;20487;-85
2022/04/27 05:11:40;;;;;;;0.00;0.00;;;;;;;;;;4946508;28;20414;-84
2022/04/27 05:14:06;;;;;;;0.10;0.10;;;;;;;;;;4948975;28;20089;-84
2022/04/27 05:16:33;;;;;;;0.30;0.30;;;;;;;;;;4945030;28;20505;-84
2022/04/27 05:18:59;;;;;;;0.22;0.22;;;;;;;;;;4958527;28;20051;-85
2022/04/27 05:21:25;;;;;;;3.25;0.80;;;;;;;;;;4944707;28;20031;-84
2022/04/27 05:23:51;;;;;;;0.55;0.55;;;;;;;;;;4945130;28;20799;-86
2022/04/27 05:26:17;;;;;;;0.10;0.10;;;;;;;;;;4946558;28;20130;-84
2022/04/27 05:34:13;;;;;;;0.40;0.40;;;;;;;;;;4943418;28;20518;-84
2022/04/27 05:36:39;;;;;;;0.35;0.35;;;;;;;;;;4947042;29;20035;-83
2022/04/27 05:39:05;;;;;;;0.20;0.20;;;;;;;;;;4955835;28;20046;-84
2022/04/27 05:41:31;;;;;;;0.10;0.10;;;;;;;;;;4948066;28;20509;-84
2022/04/27 05:43:57;;;;;;;0.20;0.20;;;;;;;;;;4947499;28;20121;-85
2022/04/27 05:46:23;;;;;;;0.17;0.17;;;;;;;;;;4947111;28;20067;-84
2022/04/27 05:48:50;;;;;;;0.73;0.73;;;;;;;;;;4944950;29;20031;-85
2022/04/27 05:51:16;;;;;;;0.10;0.10;;;;;;;;;;4946371;28;20062;-85
2022/04/27 05:53:42;;;;;;;0.20;0.20;;;;;;;;;;4951548;28;20260;-85
2022/04/27 05:56:08;;;;;;;0.15;0.15;;;;;;;;;;4949840;28;20039;-86
2022/04/27 05:58:35;;;;;;;0.50;0.47;;;;;;;;;;4943131;28;20034;-86
2022/04/27 06:01:01;;;;;;;0.25;0.25;;;;;;;;;;4950234;28;20086;-85
2022/04/27 06:03:27;;;;;;;0.10;0.10;;;;;;;;;;4947266;28;20469;-85
2022/04/27 06:05:53;;;;;;;0.30;0.30;;;;;;;;;;4947579;28;20042;-85
2022/04/27 06:08:19;;;;;;;0.30;0.30;;;;;;;;;;4947584;28;20035;-85
2022/04/27 06:10:45;;;;;;;0.87;0.57;;;;;;;;;;4944193;28;20319;-84
2022/04/27 06:13:11;;;;;;;0.10;0.10;;;;;;;;;;4947725;28;20042;-85
2022/04/27 06:15:37;;;;;;;0.70;0.70;;;;;;;;;;4947526;28;20031;-85
2022/04/27 06:18:03;;;;;;;0.00;0.00;;;;;;;;;;4944654;28;20046;-85
2022/04/27 06:20:29;;;;;;;0.63;0.57;;;;;;;;;;4946360;28;20130;-86
2022/04/27 06:22:57;;;;;;;0.28;0.28;;;;;;;;;;4943335;29;20043;-84
2022/04/27 06:25:25;;;;;;;0.00;0.00;;;;;;;;;;4954971;28;20497;-86
2022/04/27 06:27:51;;;;;;;1.65;0.85;;;;;;;;;;4946232;28;20038;-86
2022/04/27 06:30:17;;;;;;;0.10;0.10;;;;;;;;;;4954733;28;20500;-84
2022/04/27 06:32:43;;;;;;;0.20;0.20;;;;;;;;;;4953286;28;20492;-85
2022/04/27 06:35:13;;;;;;;0.38;0.15;;;;;;;;;;4944846;28;20054;-84
2022/04/27 06:37:39;;;;;;;0.10;0.10;;;;;;;;;;4941029;28;20048;-84
2022/04/27 06:40:05;;;;;;;0.13;0.10;;;;;;;;;;4946354;28;20035;-85
2022/04/27 06:42:31;;;;;;;;;;;;;;;;;;4947284;28;20043;-84
2022/04/27 06:45:04;;;;;;;0.40;0.35;;;;;;;;;;4950901;28;19914;-85
2022/04/27 06:47:30;;;;;;;0.20;0.20;;;;;;;;;;4943276;28;20046;-85
2022/04/27 06:49:56;;;;;;;0.40;0.40;;;;;;;;;;4941954;29;20027;-86
2022/04/27 06:52:22;;;;;;;0.10;0.10;;;;;;;;;;4960097;28;20054;-87
2022/04/27 06:54:48;;;;;;;0.98;0.40;;;;;;;;;;4949041;28;20493;-87
2022/04/27 06:57:14;;;;;;;0.22;0.22;;;;;;;;;;4947362;28;20066;-85
2022/04/27 06:59:40;;;;;;;0.68;0.68;;;;;;;;;;4944624;28;20133;-85
2022/04/27 07:02:08;;;;;;;0.00;0.00;;;;;;;;;;4947105;28;20539;-86
2022/04/27 07:04:35;;;;;;;1.35;1.02;;;;;;;;;;4944778;28;20042;-85
2022/04/27 07:07:02;;;;;;;1.00;0.47;;;;;;;;;;4948571;28;20031;-85
2022/04/27 07:09:29;;;;;;;0.10;0.10;;;;;;;;;;4949343;28;20031;-86
2022/04/27 07:11:55;;;;;;;0.10;0.10;;;;;;;;;;4945889;28;20035;-85
2022/04/27 07:14:21;;;;;;;0.10;0.08;;;;;;;;;;4946545;28;20061;-85
2022/04/27 07:16:47;;;;;;;1.27;1.08;;;;;;;;;;4942681;28;20102;-85
2022/04/27 07:19:14;;;;;;;0.25;0.22;;;;;;;;;;4943094;28;20053;-85
2022/04/27 07:21:40;;;;;;;0.17;0.17;;;;;;;;;;4947181;28;20031;-84
2022/04/27 07:24:07;;;;;;;0.35;0.20;;;;;;;;;;4945218;28;20047;-84
2022/04/27 07:26:33;;;;;;;1.65;0.85;;;;;;;;;;4941749;28;20500;-85
2022/04/27 07:28:59;;;;;;;0.20;0.20;;;;;;;;;;4945000;28;20098;-83
2022/04/27 07:31:26;;;;;;;0.20;0.20;;;;;;;;;;4944040;28;20034;-86
2022/04/27 07:33:52;;;;;;;0.22;0.22;;;;;;;;;;4948146;28;20027;-87
2022/04/27 07:36:18;;;;;;;0.10;0.10;;;;;;;;;;4939019;28;20043;-86
2022/04/27 07:38:45;;;;;;;0.20;0.20;;;;;;;;;;4934218;28;20507;-85
2022/04/27 07:41:11;;;;;;;1.17;1.05;;;;;;;;;;4939154;29;20047;-85
2022/04/27 07:43:37;;;;;;;;;;;;;;;;;;4929634;29;20054;-86
2022/04/27 07:46:05;;;;;;;;;;;;;;;;;;4942287;28;19914;-86
2022/04/27 07:48:34;;;;;;;0.45;0.22;;;;;;;;;;4937744;29;19978;-86
2022/04/27 07:51:01;;;;;;;0.20;0.20;;;;;;;;;;4938256;29;20030;-86
2022/04/27 07:53:27;;;;;;;0.00;0.00;;;;;;;;;;4938949;28;20045;-87
2022/04/27 07:55:53;;;;;;;0.10;0.10;;;;;;;;;;4938303;28;20126;-89
2022/04/27 07:58:19;;;;;;;0.40;0.20;;;;;;;;;;4939303;28;20031;-85
2022/04/27 08:00:45;;;;;;;0.57;0.47;;;;;;;;;;4941915;28;20028;-86
2022/04/27 08:03:11;;;;;;;0.20;0.20;;;;;;;;;;4939515;28;20727;-88
2022/04/27 08:05:37;;;;;;;0.20;0.20;;;;;;;;;;4931895;29;20055;-87
2022/04/27 08:08:03;;;;;;;1.83;1.02;;;;;;;;;;4935428;29;20121;-87
2022/04/27 08:10:29;;;;;;;0.20;0.20;;;;;;;;;;4927101;28;20042;-88
2022/04/27 08:12:55;;;;;;;0.00;0.00;;;;;;;;;;4943245;28;20030;-87
2022/04/27 08:15:23;;;;;;;0.10;0.10;;;;;;;;;;4939208;29;20109;-86
2022/04/27 08:17:53;;;;;;;0.30;0.20;;;;;;;;;;4939658;28;20587;-86
2022/04/27 08:23:05;;;;;;;;;;;;;;;;;;4946389;29;20836;-87
2022/04/27 08:25:31;;;;;;;0.10;0.10;;;;;;;;;;4942658;28;19919;-87
2022/04/27 08:27:57;;;;;;;0.10;0.10;;;;;;;;;;4944271;28;20072;-91
2022/04/27 08:30:24;;;;;;;0.20;0.20;;;;;;;;;;4944102;28;20052;-87
2022/04/27 08:32:50;;;;;;;0.93;0.43;;;;;;;;;;4936462;28;20501;-87
2022/04/27 08:35:16;;;;;;;0.15;0.15;;;;;;;;;;4940615;29;20145;-86
2022/04/27 08:37:42;;;;;;;0.15;0.15;;;;;;;;;;4944054;28;20375;-87
2022/04/27 08:40:08;;;;;;;0.20;0.10;;;;;;;;;;4943612;29;20035;-86
2022/04/27 08:42:34;;;;;;;;;;;;;;;;;;4945055;28;20062;-87
2022/04/27 08:45:00;;;;;;;0.15;0.15;;;;;;;;;;4937416;29;20010;-87
2022/04/27 08:47:28;;;;;;;0.25;0.25;;;;;;;;;;4939828;29;20035;-86
2022/04/27 08:49:54;;;;;;;0.57;0.30;;;;;;;;;;4941108;28;20066;-87
2022/04/27 08:52:21;;;;;;;0.45;0.38;;;;;;;;;;4941118;28;20118;-86
2022/04/27 08:54:49;;;;;;;0.20;0.20;;;;;;;;;;4940084;29;20042;-87
2022/04/27 08:57:15;;;;;;;0.28;0.28;;;;;;;;;;4934348;28;20032;-88
2022/04/27 08:59:41;;;;;;;0.13;0.13;;;;;;;;;;4933731;29;20472;-85
2022/04/27 09:02:07;;;;;;;;;;;;;;;;;;4938683;29;20097;-84
2022/04/27 09:04:33;;;;;;;0.15;0.10;;;;;;;;;;4932211;29;20332;-82
2022/04/27 09:07:15;;;;;;;1.45;0.35;;;;;;;;;;4945532;29;20082;-81
2022/04/27 09:09:41;;;;;;;0.10;0.10;;;;;;;;;;4945579;28;20023;-82
2022/04/27 09:12:14;;;;;;;0.05;0.05;;;;;;;;;;4941149;28;20606;-81
2022/04/27 09:14:40;;;;;;;0.57;0.35;;;;;;;;;;4941765;28;20574;-81
2022/04/27 09:22:45;;;;;;;0.27;0.27;;;;;;;;;;4945023;29;20507;-83
2022/04/27 09:25:11;;;;;;;0.17;0.17;;;;;;;;;;4943377;29;20035;-83
2022/04/27 09:27:37;;;;;;;;;;;;;;;;;;4942978;28;20090;-82
2022/04/27 09:30:07;;;;;;;0.35;0.35;;;;;;;;;;4933506;28;19919;-82
2022/04/27 09:32:34;;;;;;;0.20;0.20;;;;;;;;;;4929027;29;20598;-83
2022/04/27 09:35:02;;;;;;;0.25;0.10;;;;;;;;;;4931065;29;20035;-84
2022/04/27 09:37:30;;;;;;;0.10;0.10;;;;;;;;;;4930561;29;20243;-82
2022/04/27 09:40:07;;;;;;;0.15;0.15;;;;;;;;;;4935517;28;20035;-83
2022/04/27 09:42:37;;;;;;;0.15;0.15;;;;;;;;;;4930935;29;20560;-83
2022/04/27 09:45:22;;;;;;;0.10;0.10;;;;;;;;;;4928520;29;20024;-82
2022/04/27 09:47:49;;;;;;;0.80;0.45;;;;;;;;;;4939961;28;20404;-82
2022/04/27 09:50:16;;;;;;;0.25;0.20;;;;;;;;;;4941933;28;20043;-84
2022/04/27 09:52:43;;;;;;;0.35;0.30;;;;;;;;;;4943294;28;20523;-83
2022/04/27 09:55:10;;;;;;;0.08;0.03;;;;;;;;;;4945654;28;20040;-83
2022/04/27 09:57:40;;;;;;;0.30;0.30;;;;;;;;;;4942471;29;20109;-83
2022/04/27 10:00:07;;;;;;;0.20;0.20;;;;;;;;;;4940192;28;20035;-83
2022/04/27 10:02:34;;;;;;;0.30;0.15;;;;;;;;;;4942672;28;20031;-84
2022/04/27 10:05:01;;;;;;;0.35;0.35;;;;;;;;;;4938902;28;20530;-83
2022/04/27 10:07:30;;;;;;;0.35;0.22;;;;;;;;;;4944143;29;20036;-83
2022/04/27 10:09:57;;;;;;;0.10;0.10;;;;;;;;;;4943096;28;20420;-83
2022/04/27 10:12:23;;;;;;;0.40;0.40;;;;;;;;;;4933032;28;20040;-83
2022/04/27 10:14:49;;;;;;;0.32;0.20;;;;;;;;;;4933634;28;20033;-83
2022/04/27 10:17:15;;;;;;;0.20;0.20;;;;;;;;;;4938784;28;20043;-84
2022/04/27 10:19:41;;;;;;;;;;;;;;;;;;4941685;29;20043;-84
2022/04/27 10:22:07;;;;;;;;;;;;;;;;;;4943367;29;19910;-84
2022/04/27 10:24:33;;;;;;;;;;;;;;;;;;4941086;29;19918;-83
2022/04/27 10:26:59;;;;;;;;;;;;;;;;;;4941183;28;19993;-84
2022/04/27 10:29:25;;;;;;;0.10;0.10;;;;;;;;;;4940941;28;19914;-82
2022/04/27 10:31:54;;;;;;;0.25;0.25;;;;;;;;;;4940794;28;20031;-88
2022/04/27 10:34:20;;;;;;;0.20;0.20;;;;;;;;;;4943816;28;20031;-88
2022/04/27 10:36:47;;;;;;;1.08;0.55;;;;;;;;;;4941659;29;20504;-86
2022/04/27 10:39:14;;;;;;;0.25;0.10;;;;;;;;;;4941407;28;20676;-87
2022/04/27 10:41:41;;;;;;;0.55;0.45;;;;;;;;;;4940760;28;20027;-86
2022/04/27 10:44:07;;;;;;;0.13;0.13;;;;;;;;;;4937652;28;20638;-88
2022/04/27 10:46:38;;;;;;;4.10;0.20;;;;;;;;;;4940207;29;20028;-88
2022/04/27 10:49:23;;;;;;;0.30;0.30;;;;;;;;;;4943403;29;20465;-89
2022/04/27 10:52:01;;;;;;;0.28;0.10;;;;;;;;;;4939303;29;20027;-85
2022/04/27 10:54:28;;;;;;;1.45;1.27;;;;;;;;;;4939165;28;20042;-85
2022/04/27 10:56:56;;;;;;;0.22;0.22;;;;;;;;;;4939634;28;20122;-85
2022/04/27 10:59:40;;;;;;;0.00;0.00;;;;;;;;;;4937047;28;21112;-86
2022/04/27 11:02:06;;;;;;;0.17;0.15;;;;;;;;;;4940322;29;20055;-86
2022/04/27 11:04:33;;;;;;;0.10;0.10;;;;;;;;;;4940949;28;24590;-85
2022/04/27 11:07:22;;;;;;;0.15;0.13;;;;;;;;;;4942487;29;20074;-85
2022/04/27 11:10:08;;;;;;;0.10;0.10;;;;;;;;;;4941196;29;20435;-84
2022/04/27 11:12:36;;;;;;;2.53;0.30;;;;;;;;;;4942025;29;20122;-84
2022/04/27 11:15:03;;;;;;;0.52;0.35;;;;;;;;;;4934208;28;20528;-84
2022/04/27 11:17:29;;;;;;;0.00;0.00;;;;;;;;;;4942725;28;20035;-85
2022/04/27 11:19:55;;;;;;;0.03;0.03;;;;;;;;;;4944338;28;20055;-85
2022/04/27 11:22:21;;;;;;;0.63;0.47;;;;;;;;;;4944769;28;20041;-83
2022/04/27 11:24:53;;;;;;;0.13;0.13;;;;;;;;;;4946761;28;20066;-85
2022/04/27 11:27:27;;;;;;;0.17;0.17;;;;;;;;;;4944393;28;20042;-86
2022/04/27 11:29:54;;;;;;;0.73;0.43;;;;;;;;;;4944265;28;20043;-84
2022/04/27 11:32:20;;;;;;;0.52;0.30;;;;;;;;;;4939002;28;20107;-85
2022/04/27 11:34:49;;;;;;;0.17;0.10;;;;;;;;;;4927388;28;20674;-82
2022/04/27 11:37:16;;;;;;;0.22;0.22;;;;;;;;;;4930749;28;20638;-83
2022/04/27 11:39:43;;;;;;;0.52;0.30;;;;;;;;;;4936432;28;20517;-81
2022/04/27 11:42:12;;;;;;;0.00;0.00;;;;;;;;;;4932274;28;20138;-85
2022/04/27 11:44:38;;;;;;;0.10;0.10;;;;;;;;;;4935830;28;20413;-84
2022/04/27 11:47:04;;;;;;;3.42;0.10;;;;;;;;;;4932494;29;20031;-84
2022/04/27 11:49:30;;;;;;;0.10;0.10;;;;;;;;;;4937763;28;20047;-85
2022/04/27 11:51:56;;;;;;;0.15;0.13;;;;;;;;;;4936963;28;20050;-84
2022/04/27 11:54:26;;;;;;;0.00;0.00;;;;;;;;;;4936873;28;20202;-84
2022/04/27 11:56:57;;;;;;;0.38;0.38;;;;;;;;;;4935606;28;20090;-85
2022/04/27 11:59:24;;;;;;;2.05;1.33;;;;;;;;;;4936605;28;20035;-84
2022/04/27 12:01:50;;;;;;;;;;;;;;;;;;4940049;28;20469;-85
2022/04/27 12:04:16;;;;;;;0.20;0.20;;;;;;;;;;4940711;28;19922;-85
2022/04/27 12:06:42;;;;;;;1.58;0.63;;;;;;;;;;4943561;28;20138;-87
2022/04/27 12:09:15;;;;;;;0.43;0.40;;;;;;;;;;4943200;28;20039;-87
2022/04/27 12:11:41;;;;;;;6.93;1.67;;;;;;;;;;4935985;28;20031;-85
2022/04/27 12:14:08;;;;;;;0.43;0.43;;;;;;;;;;4938948;28;20034;-85
2022/04/27 12:16:34;;;;;;;0.75;0.40;;;;;;;;;;4926337;28;20424;-85
2022/04/27 12:19:00;;;;;;;0.50;0.50;;;;;;;;;;4934047;28;20074;-84
2022/04/27 12:21:28;;;;;;;0.08;0.08;;;;;;;;;;4930943;28;20036;-85
2022/04/27 12:23:57;;;;;;;4.55;2.50;;;;;;;;;;4930523;28;20501;-83
2022/04/27 12:26:24;;;;;;;0.30;0.30;;;;;;;;;;4931373;28;20102;-84
2022/04/27 12:28:50;;;;;;;16.23;5.15;;;;;;;;;;4926172;28;20397;-85
2022/04/27 12:31:20;;;;;;;0.20;0.20;;;;;;;;;;4927522;28;20050;-83
2022/04/27 12:33:50;;;;;;;0.15;0.10;;;;;;;;;;4929654;28;20032;-83
2022/04/27 12:39:20;;;;;;;2.80;0.30;;;;;;;;;;4939263;28;20413;-83
2022/04/27 12:41:47;;;;;;;0.22;0.20;;;;;;;;;;4940850;28;20053;-85
2022/04/27 12:44:14;;;;;;;0.08;0.08;;;;;;;;;;4940633;28;20102;-85
2022/04/27 12:46:59;;;;;;;0.35;0.22;;;;;;;;;;4939848;28;20174;-83
2022/04/27 12:49:29;;;;;;;0.38;0.38;;;;;;;;;;4956377;28;20073;-85
2022/04/27 12:52:13;;;;;;;0.55;0.30;;;;;;;;;;4940581;28;20508;-84
2022/04/27 12:54:39;;;;;;;0.20;0.20;;;;;;;;;;4940378;28;20023;-84
2022/04/27 12:57:06;;;;;;;0.20;0.10;;;;;;;;;;4934016;28;20063;-86
2022/04/27 12:59:32;;;;;;;;;;;;;;;;;;4934692;28;20031;-86
2022/04/27 13:02:04;;;;;;;0.30;0.30;;;;;;;;;;4937439;28;20462;-86
2022/04/27 13:04:31;;;;;;;0.20;0.20;;;;;;;;;;4937801;28;20698;-85
2022/04/27 13:06:58;;;;;;;0.40;0.20;;;;;;;;;;4940747;28;20041;-85
2022/04/27 13:12:09;;;;;;;0.35;0.35;;;;;;;;;;4945126;28;20070;-86
2022/04/27 13:14:35;;;;;;;0.17;0.17;;;;;;;;;;4948840;28;20038;-84
2022/04/27 13:17:01;;;;;;;0.40;0.17;;;;;;;;;;4946488;28;20085;-85
2022/04/27 13:19:27;;;;;;;0.70;0.40;;;;;;;;;;4943055;28;21152;-85
2022/04/27 13:21:53;;;;;;;0.00;0.00;;;;;;;;;;4948442;28;20154;-85
2022/04/27 13:24:19;;;;;;;0.32;0.32;;;;;;;;;;4945424;28;20073;-84
2022/04/27 13:26:46;;;;;;;6.45;0.30;;;;;;;;;;4947064;28;20038;-85
2022/04/27 13:29:12;;;;;;;0.10;0.10;;;;;;;;;;4944152;28;20047;-86
2022/04/27 13:31:39;;;;;;;0.55;0.32;;;;;;;;;;4943530;28;20035;-86
2022/04/27 13:34:05;;;;;;;0.10;0.10;;;;;;;;;;4946381;28;20109;-84
2022/04/27 13:36:31;;;;;;;0.00;0.00;;;;;;;;;;4947247;28;20050;-86
2022/04/27 13:38:57;;;;;;;0.00;0.00;;;;;;;;;;4948589;28;20042;-85
2022/04/27 13:41:23;;;;;;;0.05;0.05;;;;;;;;;;4943024;28;20047;-84
2022/04/27 13:43:51;;;;;;;0.30;0.30;;;;;;;;;;4945978;28;20086;-84
2022/04/27 13:46:17;;;;;;;2.63;0.73;;;;;;;;;;4947385;28;20031;-84
2022/04/27 13:48:44;;;;;;;0.88;0.47;;;;;;;;;;4932718;28;20110;-85
2022/04/27 13:51:16;;;;;;;0.85;0.20;;;;;;;;;;4932286;28;20044;-85
2022/04/27 13:53:42;;;;;;;1.33;0.25;;;;;;;;;;4934387;28;20130;-84
2022/04/27 13:56:08;;;;;;;0.10;0.10;;;;;;;;;;4941787;28;20771;-84
2022/04/27 13:58:35;;;;;;;0.35;0.10;;;;;;;;;;4944708;28;20158;-83
2022/04/27 14:01:01;;;;;;;0.43;0.43;;;;;;;;;;4946899;28;20596;-84
2022/04/27 14:03:28;;;;;;;0.00;0.00;;;;;;;;;;4940660;28;20074;-85
2022/04/27 14:05:54;;;;;;;0.32;0.32;;;;;;;;;;4934201;28;20062;-84
2022/04/27 14:08:20;;;;;;;0.00;0.00;;;;;;;;;;4936389;28;20031;-83
2022/04/27 14:10:46;;;;;;;0.00;0.00;;;;;;;;;;4928647;28;20035;-83
2022/04/27 14:13:16;;;;;;;0.10;0.00;;;;;;;;;;4929483;28;20123;-83
2022/04/27 14:18:09;;;;;;;0.10;0.10;;;;;;;;;;4933733;28;20454;-83
2022/04/27 14:18:29;;;;;;;0.00;0.00;;;;;;;;;;4937027;28;20045;-83
2022/04/27 14:20:58;;;;;;;;;;;;;;;;;;4945585;28;20130;-83
2022/04/27 14:23:24;;;;;;;0.00;0.00;;;;;;;;;;4946220;28;20318;-83
2022/04/27 14:25:50;;;;;;;0.30;0.30;;;;;;;;;;4939863;28;20023;-83
2022/04/27 14:28:17;;;;;;;1.02;0.43;;;;;;;;;;4943067;29;20497;-84
2022/04/27 14:30:43;;;;;;;;;;;;;;;;;;4942558;28;20556;-82
2022/04/27 14:33:10;;;;;;;0.15;0.15;;;;;;;;;;4938289;28;19922;-82
2022/04/27 14:35:36;;;;;;;0.05;0.05;;;;;;;;;;4938991;29;20539;-83
2022/04/27 14:38:03;;;;;;;0.00;0.00;;;;;;;;;;4940089;28;20516;-84
2022/04/27 14:40:29;;;;;;;0.00;0.00;;;;;;;;;;4941988;29;20035;-83
2022/04/27 14:42:55;;;;;;;0.00;0.00;;;;;;;;;;4943974;28;20035;-84
2022/04/27 14:45:21;;;;;;;0.10;0.10;;;;;;;;;;4936536;28;20039;-84
2022/04/27 14:47:47;;;;;;;1.08;0.45;;;;;;;;;;4935232;28;20782;-84
2022/04/27 14:50:13;;;;;;;0.10;0.10;;;;;;;;;;4942001;28;20063;-84
2022/04/27 14:52:40;;;;;;;0.22;0.20;;;;;;;;;;4941199;29;20041;-84
2022/04/27 14:55:07;;;;;;;0.28;0.25;;;;;;;;;;4944025;29;20039;-83
2022/04/27 14:57:33;;;;;;;0.13;0.13;;;;;;;;;;4938238;29;20039;-83
2022/04/27 14:59:59;;;;;;;0.00;0.00;;;;;;;;;;4939099;29;20102;-82
2022/04/27 15:02:26;;;;;;;0.98;0.55;;;;;;;;;;4939023;29;20031;-82
2022/04/27 15:04:54;;;;;;;0.40;0.32;;;;;;;;;;4941868;28;20040;-83
2022/04/27 15:07:20;;;;;;;0.10;0.10;;;;;;;;;;4942644;28;20023;-84
2022/04/27 15:09:46;;;;;;;0.05;0.05;;;;;;;;;;4936977;29;20058;-83
2022/04/27 15:12:12;;;;;;;0.25;0.25;;;;;;;;;;4935926;28;20118;-84
2022/04/27 15:14:38;;;;;;;0.30;0.30;;;;;;;;;;4938604;28;20035;-83